sensor_id;sensor_type;location;lat;lon;timestamp;P1;durP1;ratioP1;P2;durP2;ratioP2
3997;SDS011;61314;53.444;9.902;2023-07-28T00:00:52;2.23;;;2.13;;
3997;SDS011;61314;53.444;9.902;2023-07-28T00:03:19;1.77;;;1.67;;
3997;SDS011;61314;53.444;9.902;2023-07-28T00:05:46;7.83;;;2.30;;
3997;SDS011;61314;53.444;9.902;2023-07-28T00:08:13;1.60;;;1.50;;
3997;SDS011;61314;53.444;9.902;2023-07-28T00:10:41;1.70;;;1.60;;
3997;SDS011;61314;53.444;9.902;2023-07-28T00:13:08;1.83;;;1.50;;
3997;SDS011;61314;53.444;9.902;2023-07-28T00:15:35;2.20;;;2.10;;
3997;SDS011;61314;53.444;9.902;2023-07-28T00:18:03;2.73;;;2.53;;
3997;SDS011;61314;53.444;9.902;2023-07-28T00:20:30;2.13;;;2.03;;
3997;SDS011;61314;53.444;9.902;2023-07-28T00:22:57;1.73;;;1.63;;
3997;SDS011;61314;53.444;9.902;2023-07-28T00:25:25;2.10;;;2.00;;
3997;SDS011;61314;53.444;9.902;2023-07-28T00:27:52;3.00;;;1.60;;
3997;SDS011;61314;53.444;9.902;2023-07-28T00:30:19;1.90;;;1.73;;
3997;SDS011;61314;53.444;9.902;2023-07-28T00:32:46;1.57;;;1.47;;
3997;SDS011;61314;53.444;9.902;2023-07-28T00:35:13;1.97;;;1.87;;
3997;SDS011;61314;53.444;9.902;2023-07-28T00:37:40;2.10;;;1.83;;
3997;SDS011;61314;53.444;9.902;2023-07-28T00:40:08;1.70;;;1.60;;
3997;SDS011;61314;53.444;9.902;2023-07-28T00:42:35;1.97;;;1.87;;
3997;SDS011;61314;53.444;9.902;2023-07-28T00:45:02;1.60;;;1.50;;
3997;SDS011;61314;53.444;9.902;2023-07-28T00:47:30;1.73;;;1.63;;
3997;SDS011;61314;53.444;9.902;2023-07-28T00:49:57;1.70;;;1.60;;
3997;SDS011;61314;53.444;9.902;2023-07-28T00:52:24;1.90;;;1.80;;
3997;SDS011;61314;53.444;9.902;2023-07-28T00:54:52;1.90;;;1.80;;
3997;SDS011;61314;53.444;9.902;2023-07-28T00:57:19;1.57;;;1.47;;
3997;SDS011;61314;53.444;9.902;2023-07-28T00:59:46;1.57;;;1.40;;
3997;SDS011;61314;53.444;9.902;2023-07-28T01:02:17;3.00;;;1.67;;
3997;SDS011;61314;53.444;9.902;2023-07-28T01:04:44;1.60;;;1.50;;
3997;SDS011;61314;53.444;9.902;2023-07-28T01:07:18;1.70;;;1.60;;
3997;SDS011;61314;53.444;9.902;2023-07-28T01:09:52;1.70;;;1.60;;
3997;SDS011;61314;53.444;9.902;2023-07-28T01:12:20;1.30;;;1.20;;
3997;SDS011;61314;53.444;9.902;2023-07-28T01:14:48;1.33;;;1.23;;
3997;SDS011;61314;53.444;9.902;2023-07-28T01:17:16;1.40;;;1.30;;
3997;SDS011;61314;53.444;9.902;2023-07-28T01:19:44;1.47;;;1.37;;
3997;SDS011;61314;53.444;9.902;2023-07-28T01:22:29;1.80;;;1.70;;
3997;SDS011;61314;53.444;9.902;2023-07-28T01:25:14;1.73;;;1.63;;
3997;SDS011;61314;53.444;9.902;2023-07-28T01:27:44;1.70;;;1.60;;
3997;SDS011;61314;53.444;9.902;2023-07-28T01:30:11;1.80;;;1.70;;
3997;SDS011;61314;53.444;9.902;2023-07-28T01:32:39;1.37;;;1.27;;
3997;SDS011;61314;53.444;9.902;2023-07-28T01:35:06;2.40;;;1.40;;
3997;SDS011;61314;53.444;9.902;2023-07-28T01:37:33;1.63;;;1.53;;
3997;SDS011;61314;53.444;9.902;2023-07-28T01:40:00;1.60;;;1.50;;
3997;SDS011;61314;53.444;9.902;2023-07-28T01:42:28;1.90;;;1.80;;
3997;SDS011;61314;53.444;9.902;2023-07-28T01:44:55;1.60;;;1.50;;
3997;SDS011;61314;53.444;9.902;2023-07-28T01:47:22;1.60;;;1.50;;
3997;SDS011;61314;53.444;9.902;2023-07-28T01:49:49;1.50;;;1.40;;
3997;SDS011;61314;53.444;9.902;2023-07-28T01:52:16;1.80;;;1.70;;
3997;SDS011;61314;53.444;9.902;2023-07-28T01:54:43;1.87;;;1.77;;
3997;SDS011;61314;53.444;9.902;2023-07-28T01:57:11;1.83;;;1.73;;
3997;SDS011;61314;53.444;9.902;2023-07-28T01:59:38;2.07;;;1.87;;
3997;SDS011;61314;53.444;9.902;2023-07-28T02:02:05;2.43;;;1.10;;
3997;SDS011;61314;53.444;9.902;2023-07-28T02:04:32;1.70;;;1.60;;
3997;SDS011;61314;53.444;9.902;2023-07-28T02:06:59;1.70;;;1.60;;
3997;SDS011;61314;53.444;9.902;2023-07-28T02:09:26;1.53;;;1.43;;
3997;SDS011;61314;53.444;9.902;2023-07-28T02:11:53;1.70;;;1.60;;
3997;SDS011;61314;53.444;9.902;2023-07-28T02:14:20;2.43;;;2.23;;
3997;SDS011;61314;53.444;9.902;2023-07-28T02:16:47;2.90;;;2.20;;
3997;SDS011;61314;53.444;9.902;2023-07-28T02:19:15;1.50;;;1.40;;
3997;SDS011;61314;53.444;9.902;2023-07-28T02:21:42;4.17;;;3.87;;
3997;SDS011;61314;53.444;9.902;2023-07-28T02:24:09;3.90;;;3.60;;
3997;SDS011;61314;53.444;9.902;2023-07-28T02:26:36;4.30;;;4.10;;
3997;SDS011;61314;53.444;9.902;2023-07-28T02:29:03;5.70;;;5.17;;
3997;SDS011;61314;53.444;9.902;2023-07-28T02:31:30;7.80;;;5.33;;
3997;SDS011;61314;53.444;9.902;2023-07-28T02:33:57;5.40;;;4.90;;
3997;SDS011;61314;53.444;9.902;2023-07-28T02:36:24;6.53;;;6.03;;
3997;SDS011;61314;53.444;9.902;2023-07-28T02:38:51;6.90;;;6.20;;
3997;SDS011;61314;53.444;9.902;2023-07-28T02:41:18;7.57;;;6.97;;
3997;SDS011;61314;53.444;9.902;2023-07-28T02:43:45;8.00;;;7.30;;
3997;SDS011;61314;53.444;9.902;2023-07-28T02:46:12;7.83;;;7.20;;
3997;SDS011;61314;53.444;9.902;2023-07-28T02:48:40;6.87;;;6.27;;
3997;SDS011;61314;53.444;9.902;2023-07-28T02:51:07;9.33;;;7.50;;
3997;SDS011;61314;53.444;9.902;2023-07-28T02:53:34;8.00;;;7.30;;
3997;SDS011;61314;53.444;9.902;2023-07-28T02:56:01;9.80;;;7.20;;
3997;SDS011;61314;53.444;9.902;2023-07-28T02:58:28;10.00;;;7.80;;
3997;SDS011;61314;53.444;9.902;2023-07-28T03:00:55;11.23;;;8.70;;
3997;SDS011;61314;53.444;9.902;2023-07-28T03:03:22;8.20;;;7.50;;
3997;SDS011;61314;53.444;9.902;2023-07-28T03:05:51;10.70;;;8.70;;
3997;SDS011;61314;53.444;9.902;2023-07-28T03:08:20;8.00;;;7.20;;
3997;SDS011;61314;53.444;9.902;2023-07-28T03:10:47;8.00;;;7.30;;
3997;SDS011;61314;53.444;9.902;2023-07-28T03:13:14;11.30;;;7.60;;
3997;SDS011;61314;53.444;9.902;2023-07-28T03:15:41;10.17;;;8.30;;
3997;SDS011;61314;53.444;9.902;2023-07-28T03:18:08;10.77;;;9.77;;
3997;SDS011;61314;53.444;9.902;2023-07-28T03:20:35;10.87;;;7.43;;
3997;SDS011;61314;53.444;9.902;2023-07-28T03:23:02;9.57;;;8.40;;
3997;SDS011;61314;53.444;9.902;2023-07-28T03:25:29;6.70;;;6.20;;
3997;SDS011;61314;53.444;9.902;2023-07-28T03:27:56;5.93;;;5.43;;
3997;SDS011;61314;53.444;9.902;2023-07-28T03:30:23;4.83;;;4.53;;
3997;SDS011;61314;53.444;9.902;2023-07-28T03:32:50;4.57;;;4.27;;
3997;SDS011;61314;53.444;9.902;2023-07-28T03:35:17;3.43;;;3.23;;
3997;SDS011;61314;53.444;9.902;2023-07-28T03:37:44;3.87;;;3.53;;
3997;SDS011;61314;53.444;9.902;2023-07-28T03:40:11;3.20;;;3.00;;
3997;SDS011;61314;53.444;9.902;2023-07-28T03:42:38;3.33;;;3.13;;
3997;SDS011;61314;53.444;9.902;2023-07-28T03:45:06;3.60;;;3.40;;
3997;SDS011;61314;53.444;9.902;2023-07-28T03:47:34;3.67;;;3.47;;
3997;SDS011;61314;53.444;9.902;2023-07-28T03:50:01;3.37;;;3.20;;
3997;SDS011;61314;53.444;9.902;2023-07-28T03:52:28;3.70;;;3.50;;
3997;SDS011;61314;53.444;9.902;2023-07-28T03:54:55;4.03;;;3.83;;
3997;SDS011;61314;53.444;9.902;2023-07-28T03:57:22;3.77;;;3.57;;
3997;SDS011;61314;53.444;9.902;2023-07-28T03:59:49;3.30;;;3.10;;
3997;SDS011;61314;53.444;9.902;2023-07-28T04:02:16;4.53;;;4.33;;
3997;SDS011;61314;53.444;9.902;2023-07-28T04:04:43;4.30;;;3.87;;
3997;SDS011;61314;53.444;9.902;2023-07-28T04:07:10;4.10;;;3.83;;
3997;SDS011;61314;53.444;9.902;2023-07-28T04:09:37;4.00;;;3.80;;
3997;SDS011;61314;53.444;9.902;2023-07-28T04:12:04;5.13;;;4.83;;
3997;SDS011;61314;53.444;9.902;2023-07-28T04:14:32;3.60;;;3.40;;
3997;SDS011;61314;53.444;9.902;2023-07-28T04:16:59;4.60;;;4.30;;
3997;SDS011;61314;53.444;9.902;2023-07-28T04:19:26;4.23;;;4.00;;
3997;SDS011;61314;53.444;9.902;2023-07-28T04:21:56;3.67;;;3.47;;
3997;SDS011;61314;53.444;9.902;2023-07-28T04:24:23;5.03;;;4.50;;
3997;SDS011;61314;53.444;9.902;2023-07-28T04:26:51;4.60;;;4.20;;
3997;SDS011;61314;53.444;9.902;2023-07-28T04:29:18;5.17;;;4.87;;
3997;SDS011;61314;53.444;9.902;2023-07-28T04:31:45;5.43;;;4.90;;
3997;SDS011;61314;53.444;9.902;2023-07-28T04:34:12;4.83;;;4.53;;
3997;SDS011;61314;53.444;9.902;2023-07-28T04:36:39;5.07;;;4.57;;
3997;SDS011;61314;53.444;9.902;2023-07-28T04:39:06;5.00;;;4.67;;
3997;SDS011;61314;53.444;9.902;2023-07-28T04:41:33;5.03;;;4.63;;
3997;SDS011;61314;53.444;9.902;2023-07-28T04:44:00;4.67;;;4.27;;
3997;SDS011;61314;53.444;9.902;2023-07-28T04:46:28;4.90;;;4.60;;
3997;SDS011;61314;53.444;9.902;2023-07-28T04:48:55;5.10;;;4.80;;
3997;SDS011;61314;53.444;9.902;2023-07-28T04:51:22;5.07;;;4.87;;
3997;SDS011;61314;53.444;9.902;2023-07-28T04:53:49;4.33;;;4.00;;
3997;SDS011;61314;53.444;9.902;2023-07-28T04:56:16;4.60;;;4.40;;
3997;SDS011;61314;53.444;9.902;2023-07-28T04:58:43;3.67;;;3.50;;
3997;SDS011;61314;53.444;9.902;2023-07-28T05:01:10;3.90;;;3.70;;
3997;SDS011;61314;53.444;9.902;2023-07-28T05:03:39;3.80;;;3.50;;
3997;SDS011;61314;53.444;9.902;2023-07-28T05:06:06;3.23;;;3.13;;
3997;SDS011;61314;53.444;9.902;2023-07-28T05:08:33;3.77;;;3.57;;
3997;SDS011;61314;53.444;9.902;2023-07-28T05:11:00;3.87;;;3.67;;
3997;SDS011;61314;53.444;9.902;2023-07-28T05:13:27;3.70;;;3.50;;
3997;SDS011;61314;53.444;9.902;2023-07-28T05:15:54;2.90;;;2.80;;
3997;SDS011;61314;53.444;9.902;2023-07-28T05:18:21;3.07;;;2.87;;
3997;SDS011;61314;53.444;9.902;2023-07-28T05:20:48;3.80;;;3.60;;
3997;SDS011;61314;53.444;9.902;2023-07-28T05:23:15;3.23;;;2.93;;
3997;SDS011;61314;53.444;9.902;2023-07-28T05:25:42;2.83;;;2.73;;
3997;SDS011;61314;53.444;9.902;2023-07-28T05:28:10;4.43;;;3.20;;
3997;SDS011;61314;53.444;9.902;2023-07-28T05:30:37;3.70;;;3.47;;
3997;SDS011;61314;53.444;9.902;2023-07-28T05:33:04;3.83;;;3.63;;
3997;SDS011;61314;53.444;9.902;2023-07-28T05:35:31;2.90;;;2.70;;
3997;SDS011;61314;53.444;9.902;2023-07-28T05:37:58;3.60;;;3.33;;
3997;SDS011;61314;53.444;9.902;2023-07-28T05:40:25;3.70;;;3.50;;
3997;SDS011;61314;53.444;9.902;2023-07-28T05:42:52;2.80;;;2.70;;
3997;SDS011;61314;53.444;9.902;2023-07-28T05:45:19;3.40;;;3.20;;
3997;SDS011;61314;53.444;9.902;2023-07-28T05:47:46;3.13;;;2.97;;
3997;SDS011;61314;53.444;9.902;2023-07-28T05:50:13;3.23;;;3.10;;
3997;SDS011;61314;53.444;9.902;2023-07-28T05:52:40;3.40;;;3.10;;
3997;SDS011;61314;53.444;9.902;2023-07-28T05:55:07;4.10;;;3.77;;
3997;SDS011;61314;53.444;9.902;2023-07-28T05:57:34;3.97;;;3.77;;
3997;SDS011;61314;53.444;9.902;2023-07-28T06:00:02;5.83;;;3.30;;
3997;SDS011;61314;53.444;9.902;2023-07-28T06:02:29;3.20;;;3.00;;
3997;SDS011;61314;53.444;9.902;2023-07-28T06:04:56;2.87;;;2.57;;
3997;SDS011;61314;53.444;9.902;2023-07-28T06:07:23;3.67;;;3.10;;
3997;SDS011;61314;53.444;9.902;2023-07-28T06:09:52;3.60;;;3.40;;
3997;SDS011;61314;53.444;9.902;2023-07-28T06:12:19;3.63;;;3.20;;
3997;SDS011;61314;53.444;9.902;2023-07-28T06:14:47;4.07;;;3.63;;
3997;SDS011;61314;53.444;9.902;2023-07-28T06:17:14;5.00;;;4.60;;
3997;SDS011;61314;53.444;9.902;2023-07-28T06:19:41;5.37;;;4.87;;
3997;SDS011;61314;53.444;9.902;2023-07-28T06:22:08;5.20;;;4.90;;
3997;SDS011;61314;53.444;9.902;2023-07-28T06:24:35;5.53;;;5.13;;
3997;SDS011;61314;53.444;9.902;2023-07-28T06:27:02;6.17;;;5.77;;
3997;SDS011;61314;53.444;9.902;2023-07-28T06:29:34;6.23;;;5.73;;
3997;SDS011;61314;53.444;9.902;2023-07-28T06:32:01;6.03;;;5.50;;
3997;SDS011;61314;53.444;9.902;2023-07-28T06:34:28;7.33;;;6.23;;
3997;SDS011;61314;53.444;9.902;2023-07-28T06:36:55;7.03;;;6.50;;
3997;SDS011;61314;53.444;9.902;2023-07-28T06:39:22;6.90;;;6.30;;
3997;SDS011;61314;53.444;9.902;2023-07-28T06:41:50;6.97;;;6.47;;
3997;SDS011;61314;53.444;9.902;2023-07-28T06:44:17;7.13;;;6.20;;
3997;SDS011;61314;53.444;9.902;2023-07-28T06:46:44;7.50;;;6.80;;
3997;SDS011;61314;53.444;9.902;2023-07-28T06:49:11;6.50;;;5.90;;
3997;SDS011;61314;53.444;9.902;2023-07-28T06:51:39;5.37;;;4.83;;
3997;SDS011;61314;53.444;9.902;2023-07-28T06:54:06;4.53;;;4.13;;
3997;SDS011;61314;53.444;9.902;2023-07-28T06:56:37;4.40;;;4.00;;
3997;SDS011;61314;53.444;9.902;2023-07-28T06:59:05;5.57;;;5.27;;
3997;SDS011;61314;53.444;9.902;2023-07-28T07:01:42;5.40;;;5.00;;
3997;SDS011;61314;53.444;9.902;2023-07-28T07:04:10;6.40;;;5.40;;
3997;SDS011;61314;53.444;9.902;2023-07-28T07:06:37;5.47;;;4.30;;
3997;SDS011;61314;53.444;9.902;2023-07-28T07:09:04;4.63;;;4.23;;
3997;SDS011;61314;53.444;9.902;2023-07-28T07:11:32;5.83;;;5.43;;
3997;SDS011;61314;53.444;9.902;2023-07-28T07:13:59;5.10;;;4.80;;
3997;SDS011;61314;53.444;9.902;2023-07-28T07:16:26;4.47;;;4.27;;
3997;SDS011;61314;53.444;9.902;2023-07-28T07:18:54;5.10;;;4.70;;
3997;SDS011;61314;53.444;9.902;2023-07-28T07:21:21;4.40;;;4.10;;
3997;SDS011;61314;53.444;9.902;2023-07-28T07:23:48;4.50;;;4.20;;
3997;SDS011;61314;53.444;9.902;2023-07-28T07:26:15;4.40;;;4.00;;
3997;SDS011;61314;53.444;9.902;2023-07-28T07:28:42;4.20;;;3.83;;
3997;SDS011;61314;53.444;9.902;2023-07-28T07:31:12;5.50;;;3.60;;
3997;SDS011;61314;53.444;9.902;2023-07-28T07:33:40;4.67;;;4.27;;
3997;SDS011;61314;53.444;9.902;2023-07-28T07:36:16;5.37;;;4.60;;
3997;SDS011;61314;53.444;9.902;2023-07-28T07:38:45;5.10;;;4.70;;
3997;SDS011;61314;53.444;9.902;2023-07-28T07:41:13;5.20;;;4.77;;
3997;SDS011;61314;53.444;9.902;2023-07-28T07:43:50;3.80;;;3.60;;
3997;SDS011;61314;53.444;9.902;2023-07-28T07:46:17;4.20;;;3.83;;
3997;SDS011;61314;53.444;9.902;2023-07-28T07:48:45;4.00;;;3.80;;
3997;SDS011;61314;53.444;9.902;2023-07-28T07:51:12;3.77;;;3.57;;
3997;SDS011;61314;53.444;9.902;2023-07-28T07:53:39;3.13;;;2.93;;
3997;SDS011;61314;53.444;9.902;2023-07-28T07:56:07;3.23;;;2.83;;
3997;SDS011;61314;53.444;9.902;2023-07-28T07:58:34;3.30;;;2.43;;
3997;SDS011;61314;53.444;9.902;2023-07-28T08:01:02;2.90;;;2.80;;
3997;SDS011;61314;53.444;9.902;2023-07-28T08:03:30;2.57;;;2.47;;
3997;SDS011;61314;53.444;9.902;2023-07-28T08:06:02;4.37;;;2.57;;
3997;SDS011;61314;53.444;9.902;2023-07-28T08:08:30;3.23;;;2.90;;
3997;SDS011;61314;53.444;9.902;2023-07-28T08:10:57;2.80;;;2.70;;
3997;SDS011;61314;53.444;9.902;2023-07-28T08:13:25;2.33;;;2.23;;
3997;SDS011;61314;53.444;9.902;2023-07-28T08:15:52;2.40;;;2.30;;
3997;SDS011;61314;53.444;9.902;2023-07-28T08:18:19;2.20;;;2.10;;
3997;SDS011;61314;53.444;9.902;2023-07-28T08:20:46;2.57;;;2.40;;
3997;SDS011;61314;53.444;9.902;2023-07-28T08:23:13;2.50;;;2.30;;
3997;SDS011;61314;53.444;9.902;2023-07-28T08:25:40;2.13;;;2.03;;
3997;SDS011;61314;53.444;9.902;2023-07-28T08:28:08;4.23;;;3.00;;
3997;SDS011;61314;53.444;9.902;2023-07-28T08:30:35;2.63;;;2.47;;
3997;SDS011;61314;53.444;9.902;2023-07-28T08:33:02;2.40;;;2.30;;
3997;SDS011;61314;53.444;9.902;2023-07-28T08:35:30;2.70;;;2.47;;
3997;SDS011;61314;53.444;9.902;2023-07-28T08:37:57;2.43;;;2.23;;
3997;SDS011;61314;53.444;9.902;2023-07-28T08:40:25;2.60;;;2.40;;
3997;SDS011;61314;53.444;9.902;2023-07-28T08:42:53;2.50;;;2.40;;
3997;SDS011;61314;53.444;9.902;2023-07-28T08:45:21;2.20;;;2.10;;
3997;SDS011;61314;53.444;9.902;2023-07-28T08:47:50;2.30;;;2.20;;
3997;SDS011;61314;53.444;9.902;2023-07-28T08:50:17;2.57;;;2.00;;
3997;SDS011;61314;53.444;9.902;2023-07-28T08:52:45;2.60;;;2.50;;
3997;SDS011;61314;53.444;9.902;2023-07-28T08:55:12;3.30;;;3.10;;
3997;SDS011;61314;53.444;9.902;2023-07-28T08:57:39;2.23;;;2.13;;
3997;SDS011;61314;53.444;9.902;2023-07-28T09:00:07;2.90;;;2.70;;
3997;SDS011;61314;53.444;9.902;2023-07-28T09:02:35;2.70;;;2.60;;
3997;SDS011;61314;53.444;9.902;2023-07-28T09:05:02;2.60;;;2.40;;
3997;SDS011;61314;53.444;9.902;2023-07-28T09:07:35;2.53;;;2.40;;
3997;SDS011;61314;53.444;9.902;2023-07-28T09:10:05;2.17;;;2.07;;
3997;SDS011;61314;53.444;9.902;2023-07-28T09:12:32;2.33;;;2.20;;
3997;SDS011;61314;53.444;9.902;2023-07-28T09:14:59;2.57;;;2.47;;
3997;SDS011;61314;53.444;9.902;2023-07-28T09:17:27;2.20;;;2.10;;
3997;SDS011;61314;53.444;9.902;2023-07-28T09:19:59;2.23;;;2.10;;
3997;SDS011;61314;53.444;9.902;2023-07-28T09:22:26;2.40;;;2.30;;
3997;SDS011;61314;53.444;9.902;2023-07-28T09:24:56;2.47;;;2.37;;
3997;SDS011;61314;53.444;9.902;2023-07-28T09:27:24;2.83;;;2.63;;
3997;SDS011;61314;53.444;9.902;2023-07-28T09:29:52;2.77;;;2.30;;
3997;SDS011;61314;53.444;9.902;2023-07-28T09:32:28;3.13;;;2.83;;
3997;SDS011;61314;53.444;9.902;2023-07-28T09:35:09;2.53;;;2.43;;
3997;SDS011;61314;53.444;9.902;2023-07-28T09:37:37;2.77;;;2.57;;
3997;SDS011;61314;53.444;9.902;2023-07-28T09:40:06;3.03;;;2.83;;
3997;SDS011;61314;53.444;9.902;2023-07-28T09:42:38;2.53;;;2.33;;
3997;SDS011;61314;53.444;9.902;2023-07-28T09:45:06;2.43;;;2.23;;
3997;SDS011;61314;53.444;9.902;2023-07-28T09:47:45;2.30;;;2.20;;
3997;SDS011;61314;53.444;9.902;2023-07-28T09:50:16;2.33;;;2.20;;
3997;SDS011;61314;53.444;9.902;2023-07-28T09:52:46;2.77;;;2.60;;
3997;SDS011;61314;53.444;9.902;2023-07-28T09:55:16;2.57;;;2.47;;
3997;SDS011;61314;53.444;9.902;2023-07-28T09:57:51;6.40;;;3.47;;
3997;SDS011;61314;53.444;9.902;2023-07-28T10:00:18;3.23;;;2.60;;
3997;SDS011;61314;53.444;9.902;2023-07-28T10:02:45;2.57;;;2.33;;
3997;SDS011;61314;53.444;9.902;2023-07-28T10:05:13;4.47;;;2.63;;
3997;SDS011;61314;53.444;9.902;2023-07-28T10:07:42;2.47;;;2.30;;
3997;SDS011;61314;53.444;9.902;2023-07-28T10:10:13;2.20;;;2.10;;
3997;SDS011;61314;53.444;9.902;2023-07-28T10:12:41;2.47;;;2.33;;
3997;SDS011;61314;53.444;9.902;2023-07-28T10:15:11;4.43;;;2.10;;
3997;SDS011;61314;53.444;9.902;2023-07-28T10:17:39;2.43;;;2.30;;
3997;SDS011;61314;53.444;9.902;2023-07-28T10:20:31;2.47;;;2.30;;
3997;SDS011;61314;53.444;9.902;2023-07-28T10:23:04;1.90;;;1.80;;
3997;SDS011;61314;53.444;9.902;2023-07-28T10:25:35;2.10;;;2.00;;
3997;SDS011;61314;53.444;9.902;2023-07-28T10:28:02;2.33;;;2.13;;
3997;SDS011;61314;53.444;9.902;2023-07-28T10:30:34;2.70;;;2.10;;
3997;SDS011;61314;53.444;9.902;2023-07-28T10:33:02;2.70;;;2.50;;
3997;SDS011;61314;53.444;9.902;2023-07-28T10:35:30;2.47;;;2.30;;
3997;SDS011;61314;53.444;9.902;2023-07-28T10:37:58;2.50;;;2.30;;
3997;SDS011;61314;53.444;9.902;2023-07-28T10:40:45;2.00;;;1.90;;
3997;SDS011;61314;53.444;9.902;2023-07-28T10:43:12;2.60;;;2.40;;
3997;SDS011;61314;53.444;9.902;2023-07-28T10:45:40;2.37;;;2.27;;
3997;SDS011;61314;53.444;9.902;2023-07-28T10:48:08;2.30;;;2.20;;
3997;SDS011;61314;53.444;9.902;2023-07-28T10:50:35;2.50;;;2.30;;
3997;SDS011;61314;53.444;9.902;2023-07-28T10:53:02;2.60;;;2.50;;
3997;SDS011;61314;53.444;9.902;2023-07-28T10:55:29;2.40;;;2.30;;
3997;SDS011;61314;53.444;9.902;2023-07-28T10:57:57;2.07;;;1.97;;
3997;SDS011;61314;53.444;9.902;2023-07-28T11:00:24;2.20;;;2.10;;
3997;SDS011;61314;53.444;9.902;2023-07-28T11:02:52;3.03;;;2.63;;
3997;SDS011;61314;53.444;9.902;2023-07-28T11:05:23;2.17;;;2.07;;
3997;SDS011;61314;53.444;9.902;2023-07-28T11:07:52;2.30;;;2.20;;
3997;SDS011;61314;53.444;9.902;2023-07-28T11:10:20;2.17;;;2.03;;
3997;SDS011;61314;53.444;9.902;2023-07-28T11:12:48;2.47;;;2.37;;
3997;SDS011;61314;53.444;9.902;2023-07-28T11:15:17;2.10;;;2.00;;
3997;SDS011;61314;53.444;9.902;2023-07-28T11:17:45;2.93;;;2.83;;
3997;SDS011;61314;53.444;9.902;2023-07-28T11:22:43;2.23;;;2.13;;
3997;SDS011;61314;53.444;9.902;2023-07-28T11:25:11;2.03;;;1.93;;
3997;SDS011;61314;53.444;9.902;2023-07-28T11:27:38;2.17;;;1.97;;
3997;SDS011;61314;53.444;9.902;2023-07-28T11:30:09;2.60;;;2.40;;
3997;SDS011;61314;53.444;9.902;2023-07-28T11:32:37;2.20;;;2.10;;
3997;SDS011;61314;53.444;9.902;2023-07-28T11:35:05;2.40;;;2.20;;
3997;SDS011;61314;53.444;9.902;2023-07-28T11:37:33;2.83;;;2.00;;
3997;SDS011;61314;53.444;9.902;2023-07-28T11:40:04;2.33;;;2.00;;
3997;SDS011;61314;53.444;9.902;2023-07-28T11:42:37;2.13;;;1.93;;
3997;SDS011;61314;53.444;9.902;2023-07-28T11:45:05;2.70;;;2.57;;
3997;SDS011;61314;53.444;9.902;2023-07-28T11:47:33;1.73;;;1.63;;
3997;SDS011;61314;53.444;9.902;2023-07-28T11:50:00;2.30;;;2.20;;
3997;SDS011;61314;53.444;9.902;2023-07-28T11:52:34;1.87;;;1.67;;
3997;SDS011;61314;53.444;9.902;2023-07-28T11:55:05;1.70;;;1.60;;
3997;SDS011;61314;53.444;9.902;2023-07-28T11:57:32;2.53;;;1.70;;
3997;SDS011;61314;53.444;9.902;2023-07-28T12:00:00;2.00;;;1.90;;
3997;SDS011;61314;53.444;9.902;2023-07-28T12:02:29;1.50;;;1.40;;
3997;SDS011;61314;53.444;9.902;2023-07-28T12:04:57;1.93;;;1.80;;
3997;SDS011;61314;53.444;9.902;2023-07-28T12:07:28;1.60;;;1.50;;
3997;SDS011;61314;53.444;9.902;2023-07-28T12:09:56;1.70;;;1.60;;
3997;SDS011;61314;53.444;9.902;2023-07-28T12:12:30;1.80;;;1.70;;
3997;SDS011;61314;53.444;9.902;2023-07-28T12:15:00;2.30;;;2.20;;
3997;SDS011;61314;53.444;9.902;2023-07-28T12:17:33;1.80;;;1.70;;
3997;SDS011;61314;53.444;9.902;2023-07-28T12:20:07;2.17;;;1.90;;
3997;SDS011;61314;53.444;9.902;2023-07-28T12:22:42;2.73;;;1.77;;
3997;SDS011;61314;53.444;9.902;2023-07-28T12:25:10;2.27;;;2.07;;
3997;SDS011;61314;53.444;9.902;2023-07-28T12:27:37;1.80;;;1.70;;
3997;SDS011;61314;53.444;9.902;2023-07-28T12:30:05;1.60;;;1.50;;
3997;SDS011;61314;53.444;9.902;2023-07-28T12:32:41;1.80;;;1.70;;
3997;SDS011;61314;53.444;9.902;2023-07-28T12:35:28;1.80;;;1.70;;
3997;SDS011;61314;53.444;9.902;2023-07-28T12:38:01;1.53;;;1.43;;
3997;SDS011;61314;53.444;9.902;2023-07-28T12:40:50;1.90;;;1.80;;
3997;SDS011;61314;53.444;9.902;2023-07-28T12:43:21;1.70;;;1.60;;
3997;SDS011;61314;53.444;9.902;2023-07-28T12:45:51;1.90;;;1.80;;
3997;SDS011;61314;53.444;9.902;2023-07-28T12:48:24;1.30;;;1.20;;
3997;SDS011;61314;53.444;9.902;2023-07-28T12:50:51;3.53;;;1.40;;
3997;SDS011;61314;53.444;9.902;2023-07-28T12:53:21;1.57;;;1.47;;
3997;SDS011;61314;53.444;9.902;2023-07-28T12:55:49;2.33;;;2.23;;
3997;SDS011;61314;53.444;9.902;2023-07-28T12:58:19;1.30;;;1.20;;
3997;SDS011;61314;53.444;9.902;2023-07-28T13:00:49;1.90;;;1.80;;
3997;SDS011;61314;53.444;9.902;2023-07-28T13:03:19;1.80;;;1.70;;
3997;SDS011;61314;53.444;9.902;2023-07-28T13:05:46;8.20;;;2.00;;
3997;SDS011;61314;53.444;9.902;2023-07-28T13:08:14;1.67;;;1.57;;
3997;SDS011;61314;53.444;9.902;2023-07-28T13:10:42;1.50;;;1.30;;
3997;SDS011;61314;53.444;9.902;2023-07-28T13:13:12;2.00;;;1.90;;
3997;SDS011;61314;53.444;9.902;2023-07-28T13:15:40;1.97;;;1.87;;
3997;SDS011;61314;53.444;9.902;2023-07-28T13:18:08;3.10;;;1.40;;
3997;SDS011;61314;53.444;9.902;2023-07-28T13:20:35;2.00;;;1.90;;
3997;SDS011;61314;53.444;9.902;2023-07-28T13:23:02;1.60;;;1.50;;
3997;SDS011;61314;53.444;9.902;2023-07-28T13:25:29;3.37;;;2.13;;
3997;SDS011;61314;53.444;9.902;2023-07-28T13:27:56;2.93;;;1.90;;
3997;SDS011;61314;53.444;9.902;2023-07-28T13:30:24;2.17;;;2.07;;
3997;SDS011;61314;53.444;9.902;2023-07-28T13:32:55;3.20;;;3.00;;
3997;SDS011;61314;53.444;9.902;2023-07-28T13:35:22;2.90;;;2.70;;
3997;SDS011;61314;53.444;9.902;2023-07-28T13:37:50;2.97;;;2.77;;
3997;SDS011;61314;53.444;9.902;2023-07-28T13:40:18;2.80;;;2.70;;
3997;SDS011;61314;53.444;9.902;2023-07-28T13:42:45;2.40;;;2.20;;
3997;SDS011;61314;53.444;9.902;2023-07-28T13:45:12;3.17;;;2.97;;
3997;SDS011;61314;53.444;9.902;2023-07-28T13:47:39;3.10;;;2.93;;
3997;SDS011;61314;53.444;9.902;2023-07-28T13:50:06;3.27;;;3.17;;
3997;SDS011;61314;53.444;9.902;2023-07-28T13:52:34;3.00;;;2.80;;
3997;SDS011;61314;53.444;9.902;2023-07-28T13:55:01;2.50;;;2.30;;
3997;SDS011;61314;53.444;9.902;2023-07-28T13:57:33;2.30;;;2.10;;
3997;SDS011;61314;53.444;9.902;2023-07-28T14:00:00;2.23;;;2.13;;
3997;SDS011;61314;53.444;9.902;2023-07-28T14:02:28;2.20;;;2.00;;
3997;SDS011;61314;53.444;9.902;2023-07-28T14:04:55;1.90;;;1.80;;
3997;SDS011;61314;53.444;9.902;2023-07-28T14:07:22;7.93;;;1.93;;
3997;SDS011;61314;53.444;9.902;2023-07-28T14:09:49;1.70;;;1.60;;
3997;SDS011;61314;53.444;9.902;2023-07-28T14:12:17;2.10;;;2.00;;
3997;SDS011;61314;53.444;9.902;2023-07-28T14:14:44;2.00;;;1.90;;
3997;SDS011;61314;53.444;9.902;2023-07-28T14:17:11;2.30;;;2.10;;
3997;SDS011;61314;53.444;9.902;2023-07-28T14:19:38;2.60;;;2.50;;
3997;SDS011;61314;53.444;9.902;2023-07-28T14:22:06;3.37;;;2.20;;
3997;SDS011;61314;53.444;9.902;2023-07-28T14:24:33;2.90;;;1.83;;
3997;SDS011;61314;53.444;9.902;2023-07-28T14:27:00;3.00;;;2.30;;
3997;SDS011;61314;53.444;9.902;2023-07-28T14:29:27;2.60;;;2.50;;
3997;SDS011;61314;53.444;9.902;2023-07-28T14:31:58;2.90;;;2.70;;
3997;SDS011;61314;53.444;9.902;2023-07-28T14:34:25;2.37;;;2.27;;
3997;SDS011;61314;53.444;9.902;2023-07-28T14:36:52;2.30;;;2.20;;
3997;SDS011;61314;53.444;9.902;2023-07-28T14:39:19;2.53;;;2.43;;
3997;SDS011;61314;53.444;9.902;2023-07-28T14:41:46;2.33;;;2.23;;
3997;SDS011;61314;53.444;9.902;2023-07-28T14:44:13;2.37;;;2.27;;
3997;SDS011;61314;53.444;9.902;2023-07-28T14:46:43;2.00;;;1.90;;
3997;SDS011;61314;53.444;9.902;2023-07-28T14:49:10;1.90;;;1.80;;
3997;SDS011;61314;53.444;9.902;2023-07-28T14:51:37;2.30;;;2.10;;
3997;SDS011;61314;53.444;9.902;2023-07-28T14:54:04;1.90;;;1.80;;
3997;SDS011;61314;53.444;9.902;2023-07-28T14:56:31;2.27;;;2.10;;
3997;SDS011;61314;53.444;9.902;2023-07-28T14:58:59;3.50;;;2.40;;
3997;SDS011;61314;53.444;9.902;2023-07-28T15:01:30;2.13;;;1.70;;
3997;SDS011;61314;53.444;9.902;2023-07-28T15:03:57;2.50;;;2.10;;
3997;SDS011;61314;53.444;9.902;2023-07-28T15:06:25;2.10;;;1.90;;
3997;SDS011;61314;53.444;9.902;2023-07-28T15:08:52;1.93;;;1.83;;